Time;durP1;ratioP1;P1;durP2;ratioP2;P2;SDS_P1;SDS_P2;PMS_P1;PMS_P2;Temp;Humidity;BMP_temperature;BMP_pressure;BME280_temperature;BME280_humidity;BME280_pressure;Samples;Min_cycle;Max_cycle;Signal;HPM_P1;HPM_P2
2023/09/03 00:01:37;;;;;;;4.03;3.10;;;;;;;20.14;nan;100013.66;4922367;29;20932;-76
2023/09/03 00:04:02;;;;;;;4.47;2.83;;;;;;;20.13;nan;100005.81;4924934;29;20247;-77
2023/09/03 00:06:28;;;;;;;3.70;3.13;;;;;;;20.15;nan;100004.69;4925840;29;20455;-77
2023/09/03 00:08:53;;;;;;;3.87;3.57;;;;;;;20.10;nan;100006.94;4923688;29;20207;-79
2023/09/03 00:11:19;;;;;;;5.20;3.50;;;;;;;20.05;nan;100009.22;4921528;28;20246;-79
2023/09/03 00:13:44;;;;;;;4.53;3.47;;;;;;;20.02;nan;100004.19;4921772;29;20606;-77
2023/09/03 00:16:10;;;;;;;3.10;2.80;;;;;;;20.01;nan;100019.34;4926386;29;20405;-77
2023/09/03 00:18:38;;;;;;;4.33;3.00;;;;;;;20.01;nan;100019.34;4927190;29;20288;-77
2023/09/03 00:21:05;;;;;;;4.63;2.73;;;;;;;20.01;nan;100019.34;4926488;28;20569;-76
2023/09/03 00:23:31;;;;;;;4.50;2.77;;;;;;;20.02;nan;100009.53;4923508;29;20460;-77
2023/09/03 00:25:58;;;;;;;2.87;2.67;;;;;;;20.01;nan;100008.69;4926222;29;20467;-77
2023/09/03 00:28:23;;;;;;;4.23;2.93;;;;;;;19.99;nan;100013.31;4925746;29;20464;-77
2023/09/03 00:31:05;;;;;;;3.87;2.93;;;;;;;19.97;nan;100017.97;4893319;29;20469;-78
2023/09/03 00:33:31;;;;;;;4.90;3.30;;;;;;;19.94;nan;100018.25;4923179;29;20296;-77
2023/09/03 00:36:01;;;;;;;5.93;3.53;;;;;;;19.91;nan;100018.56;4909606;29;20874;-78
2023/09/03 00:38:26;;;;;;;3.00;2.43;;;;;;;19.84;nan;100022.78;4923222;29;20829;-79
2023/09/03 00:40:55;;;;;;;3.10;2.73;;;;;;;19.82;nan;100027.41;4925684;29;20783;-77
2023/09/03 00:43:21;;;;;;;3.37;2.33;;;;;;;19.80;nan;100040.06;4909051;29;20261;-76
2023/09/03 00:45:48;;;;;;;4.17;2.43;;;;;;;19.78;nan;100034.03;4923752;29;20479;-76
2023/09/03 00:48:17;;;;;;;5.37;2.87;;;;;;;19.76;nan;100046.66;4908201;29;21036;-79
2023/09/03 00:50:45;;;;;;;2.50;2.30;;;;;;;19.75;nan;100040.50;4925200;29;20491;-78
2023/09/03 00:53:10;;;;;;;3.80;2.40;;;;;;;19.70;nan;100053.44;4925325;28;20436;-79
2023/09/03 00:55:37;;;;;;;2.90;2.60;;;;;;;19.63;nan;100050.50;4925689;29;20476;-77
2023/09/03 00:58:04;;;;;;;2.70;2.43;;;;;;;19.59;nan;100048.25;4925163;28;20199;-80
2023/09/03 01:00:30;;;;;;;3.83;2.43;;;;;;;19.57;nan;100058.19;4912362;29;20450;-77
2023/09/03 01:02:55;;;;;;;5.50;3.60;;;;;;;19.53;nan;100052.34;4922491;29;20481;-77
2023/09/03 01:05:21;;;;;;;4.13;3.00;;;;;;;19.51;nan;100058.78;4910689;29;20286;-75
2023/09/03 01:07:48;;;;;;;6.03;2.73;;;;;;;19.52;nan;100058.63;4919338;29;20206;-74
2023/09/03 01:10:15;;;;;;;3.57;2.57;;;;;;;19.56;nan;100061.88;4908209;29;20608;-75
2023/09/03 01:12:56;;;;;;;3.80;2.97;;;;;;;19.59;nan;100061.56;4908631;29;20469;-75
2023/09/03 01:15:28;;;;;;;6.10;3.47;;;;;;;19.60;nan;100077.41;4923696;29;20448;-74
2023/09/03 01:18:01;;;;;;;4.63;2.80;;;;;;;19.60;nan;100069.41;4921883;29;20445;-75
2023/09/03 01:20:44;;;;;;;2.67;2.47;;;;;;;19.60;nan;100073.91;4908019;29;20467;-75
2023/09/03 01:23:26;;;;;;;5.17;2.50;;;;;;;19.56;nan;100076.03;4906429;29;20878;-74
2023/09/03 01:25:51;;;;;;;4.33;2.90;;;;;;;19.51;nan;100080.09;4923081;29;20559;-77
2023/09/03 01:28:30;;;;;;;3.27;2.30;;;;;;;19.47;nan;100087.56;4908588;29;20986;-77
2023/09/03 01:31:11;;;;;;;3.53;2.10;;;;;;;19.45;nan;100093.00;4923132;29;20210;-79
2023/09/03 01:33:41;;;;;;;3.17;2.43;;;;;;;19.43;nan;100091.47;4922907;29;20469;-78
2023/09/03 01:36:09;;;;;;;4.43;3.00;;;;;;;19.39;nan;100093.59;4925784;29;20496;-76
2023/09/03 01:38:39;;;;;;;4.63;3.10;;;;;;;19.31;nan;100090.78;4923781;29;20202;-79
2023/09/03 01:41:05;;;;;;;3.33;2.50;;;;;;;19.20;nan;100101.59;4923790;29;20961;-76
2023/09/03 01:43:31;;;;;;;3.40;2.60;;;;;;;19.06;nan;100105.50;4923464;29;20468;-78
2023/09/03 01:46:03;;;;;;;5.40;3.33;;;;;;;18.97;nan;100114.34;4923842;29;20473;-77
2023/09/03 01:48:56;;;;;;;5.20;2.80;;;;;;;18.91;nan;100115.75;4923990;29;20209;-77
2023/09/03 01:51:27;;;;;;;2.93;2.63;;;;;;;18.88;nan;100115.19;4920369;29;20470;-77
2023/09/03 01:54:01;;;;;;;4.20;3.07;;;;;;;18.89;nan;100115.03;4920574;28;20604;-78
2023/09/03 01:56:32;;;;;;;4.70;2.33;;;;;;;18.90;nan;100114.06;4922899;29;20449;-77
2023/09/03 01:59:04;;;;;;;4.57;3.20;;;;;;;18.87;nan;100121.47;4906626;29;20566;-78
2023/09/03 02:01:32;;;;;;;3.90;2.30;;;;;;;18.81;nan;100124.69;4906835;29;21024;-77
2023/09/03 02:03:57;;;;;;;6.30;3.50;;;;;;;18.76;nan;100128.59;4919441;29;20529;-77
2023/09/03 02:06:23;;;;;;;5.73;2.70;;;;;;;18.76;nan;100133.09;4919352;29;21156;-77
2023/09/03 02:08:48;;;;;;;5.60;3.07;;;;;;;18.78;nan;100133.78;4923674;29;20404;-79
2023/09/03 02:11:13;;;;;;;3.17;2.40;;;;;;;18.81;nan;100135.34;4921350;29;20194;-77
2023/09/03 02:13:40;;;;;;;4.27;2.93;;;;;;;18.84;nan;100135.91;4901987;29;20674;-77
2023/09/03 02:16:05;;;;;;;2.30;2.00;;;;;;;18.85;nan;100132.28;4917903;29;20209;-78
2023/09/03 02:18:31;;;;;;;3.77;2.30;;;;;;;18.84;nan;100133.22;4903664;29;20453;-76
2023/09/03 02:20:56;;;;;;;5.67;3.33;;;;;;;18.83;nan;100134.22;4921019;29;20540;-77
2023/09/03 02:23:21;;;;;;;2.90;2.50;;;;;;;18.78;nan;100137.28;4916389;29;20258;-76
2023/09/03 02:25:47;;;;;;;3.40;3.10;;;;;;;18.76;nan;100139.25;4915957;29;20655;-78
2023/09/03 02:28:12;;;;;;;3.70;2.60;;;;;;;18.75;nan;100126.94;4896300;29;20233;-76
2023/09/03 02:30:37;;;;;;;2.80;2.40;;;;;;;18.74;nan;100135.00;4918387;29;20202;-79
2023/09/03 02:33:03;;;;;;;3.60;2.70;;;;;;;18.68;nan;100125.75;4900106;29;20238;-77
2023/09/03 02:35:28;;;;;;;3.73;2.27;;;;;;;18.67;nan;100125.91;4920045;29;20174;-79
2023/09/03 02:37:54;;;;;;;4.37;3.50;;;;;;;18.61;nan;100121.13;4900878;29;20240;-77
2023/09/03 02:40:20;;;;;;;3.70;3.00;;;;;;;18.56;nan;100122.38;4917521;29;20205;-77
2023/09/03 02:42:45;;;;;;;3.87;2.90;;;;;;;18.53;nan;100125.31;4919838;29;20210;-78
2023/09/03 02:45:10;;;;;;;3.77;2.77;;;;;;;18.50;nan;100120.25;4901147;29;21157;-79
2023/09/03 02:47:36;;;;;;;3.67;2.83;;;;;;;18.47;nan;100117.88;4918765;29;20212;-78
2023/09/03 02:50:01;;;;;;;4.03;3.43;;;;;;;18.44;nan;100127.94;4915079;29;20208;-76
2023/09/03 02:52:27;;;;;;;6.70;3.63;;;;;;;18.38;nan;100136.47;4900740;29;20731;-77
2023/09/03 02:54:52;;;;;;;3.50;2.97;;;;;;;18.30;nan;100132.63;4900201;29;20670;-78
2023/09/03 02:57:18;;;;;;;5.67;3.50;;;;;;;18.24;nan;100138.50;4918579;29;20214;-76
2023/09/03 02:59:44;;;;;;;3.10;2.70;;;;;;;18.19;nan;100139.88;4914678;29;20200;-79
2023/09/03 03:02:09;;;;;;;5.60;3.07;;;;;;;18.17;nan;100132.03;4897584;29;20216;-77
2023/09/03 03:04:35;;;;;;;4.60;3.10;;;;;;;18.20;nan;100137.09;4903777;29;20457;-77
2023/09/03 03:07:00;;;;;;;4.20;3.40;;;;;;;18.23;nan;100141.31;4924252;29;21023;-78
2023/09/03 03:09:26;;;;;;;3.50;3.07;;;;;;;18.23;nan;100138.66;4916818;29;20201;-77
2023/09/03 03:11:52;;;;;;;2.00;1.80;;;;;;;18.23;nan;100146.63;4903442;29;20237;-76
2023/09/03 03:14:17;;;;;;;1.80;1.70;;;;;;;18.15;nan;100141.97;4904640;29;21128;-78
2023/09/03 03:16:43;;;;;;;1.73;1.60;;;;;;;18.01;nan;100143.19;4923793;29;20256;-77
2023/09/03 03:19:12;;;;;;;2.60;2.13;;;;;;;17.87;nan;100141.69;4902009;29;20636;-78
2023/09/03 03:21:37;;;;;;;4.90;2.53;;;;;;;17.76;nan;100148.84;4920192;29;20480;-78
2023/09/03 03:24:05;;;;;;;1.97;1.77;;;;;;;17.66;nan;100148.78;4920816;29;20198;-77
2023/09/03 03:26:34;;;;;;;2.80;2.17;;;;;;;17.61;nan;100153.69;4912680;29;20927;-76
2023/09/03 03:29:01;;;;;;;2.97;2.17;;;;;;;17.55;nan;100151.50;4902173;29;20898;-76
2023/09/03 03:31:31;;;;;;;3.30;2.40;;;;;;;17.53;nan;100159.63;4902158;29;20472;-77
2023/09/03 03:33:58;;;;;;;2.70;2.05;;;;;;;17.53;nan;100156.13;4923118;29;20443;-76
2023/09/03 03:36:26;;;;;;;3.40;1.93;;;;;;;17.54;nan;100163.13;4907666;29;20197;-78
2023/09/03 03:38:52;;;;;;;3.20;2.07;;;;;;;17.56;nan;100163.84;4905119;29;20461;-77
2023/09/03 03:41:19;;;;;;;2.47;1.80;;;;;;;17.57;nan;100168.16;4904664;29;20197;-78
2023/09/03 03:43:48;;;;;;;3.20;2.30;;;;;;;17.58;nan;100164.53;4905658;29;20463;-76
2023/09/03 03:46:15;;;;;;;2.50;2.30;;;;;;;17.57;nan;100154.88;4902849;29;20837;-77
2023/09/03 03:48:43;;;;;;;2.20;2.00;;;;;;;17.58;nan;100156.56;4906348;29;20866;-77
2023/09/03 03:51:09;;;;;;;3.57;2.20;;;;;;;17.61;nan;100156.34;4923122;29;20481;-79
2023/09/03 03:53:34;;;;;;;2.20;1.90;;;;;;;17.65;nan;100158.56;4921981;29;20593;-76
2023/09/03 03:56:00;;;;;;;2.50;2.30;;;;;;;17.68;nan;100158.31;4903504;29;20321;-76
2023/09/03 03:58:28;;;;;;;4.40;2.10;;;;;;;17.68;nan;100162.78;4902481;29;21284;-79
2023/09/03 04:00:54;;;;;;;2.90;2.60;;;;;;;17.69;nan;100162.66;4919332;29;20487;-78
2023/09/03 04:03:21;;;;;;;3.00;2.33;;;;;;;17.74;nan;100164.09;4920297;29;20477;-76
2023/09/03 04:05:58;;;;;;;2.80;2.33;;;;;;;17.78;nan;100163.69;4902946;29;20533;-76
2023/09/03 04:08:26;;;;;;;3.50;2.63;;;;;;;17.81;nan;100179.41;4920002;29;20547;-78
2023/09/03 04:11:02;;;;;;;2.40;2.13;;;;;;;17.82;nan;100180.25;4903030;29;21062;-77
2023/09/03 04:13:28;;;;;;;3.30;2.87;;;;;;;17.82;nan;100180.25;4918554;29;20503;-76
2023/09/03 04:15:54;;;;;;;2.67;2.07;;;;;;;17.80;nan;100183.06;4901047;29;20441;-76
2023/09/03 04:18:21;;;;;;;3.30;2.60;;;;;;;17.76;nan;100184.25;4919862;28;20457;-78
2023/09/03 04:20:55;;;;;;;3.37;2.87;;;;;;;17.77;nan;100177.09;4904470;29;20464;-76
2023/09/03 04:23:25;;;;;;;3.30;2.73;;;;;;;17.79;nan;100180.50;4905174;29;20453;-78
2023/09/03 04:25:52;;;;;;;2.23;2.03;;;;;;;17.79;nan;100172.53;4921233;29;20521;-76
2023/09/03 04:28:19;;;;;;;2.00;1.90;;;;;;;17.76;nan;100181.59;4904674;29;20457;-79
2023/09/03 04:30:45;;;;;;;2.60;1.97;;;;;;;17.71;nan;100186.44;4921275;29;20508;-76
2023/09/03 04:33:11;;;;;;;3.07;2.13;;;;;;;17.66;nan;100189.50;4906886;29;20961;-74
2023/09/03 04:35:38;;;;;;;2.13;1.92;;;;;;;17.61;nan;100188.22;4906308;29;20442;-74
2023/09/03 04:38:05;;;;;;;1.70;1.50;;;;;;;17.51;nan;100197.91;4906259;29;20235;-74
2023/09/03 04:40:35;;;;;;;1.63;1.20;;;;;;;17.36;nan;100192.91;4904281;29;20512;-74
2023/09/03 04:43:03;;;;;;;2.90;1.80;;;;;;;17.26;nan;100191.97;4906621;29;20544;-74
2023/09/03 04:45:30;;;;;;;2.07;1.70;;;;;;;17.18;nan;100189.94;4900204;29;20488;-74
2023/09/03 04:47:57;;;;;;;1.70;1.60;;;;;;;17.11;nan;100191.41;4905590;29;20494;-74
2023/09/03 04:50:24;;;;;;;2.97;2.30;;;;;;;17.09;nan;100200.47;4906720;29;20563;-74
2023/09/03 04:52:49;;;;;;;1.60;1.50;;;;;;;17.06;nan;100203.38;4905601;29;20842;-74
2023/09/03 04:55:16;;;;;;;2.30;2.10;;;;;;;17.04;nan;100208.81;4903672;29;20481;-74
2023/09/03 04:57:42;;;;;;;2.90;2.30;;;;;;;17.03;nan;100215.91;4902832;29;20457;-74
2023/09/03 05:00:08;;;;;;;7.97;2.90;;;;;;;17.02;nan;100214.22;4908736;29;20492;-74
2023/09/03 05:02:34;;;;;;;2.30;1.83;;;;;;;16.99;nan;100219.78;4901105;29;20210;-74
2023/09/03 05:05:00;;;;;;;3.10;1.60;;;;;;;16.97;nan;100220.88;4901727;29;20817;-74
2023/09/03 05:07:26;;;;;;;3.17;2.97;;;;;;;16.96;nan;100229.81;4904333;29;20524;-74
2023/09/03 05:09:55;;;;;;;1.97;1.47;;;;;;;16.94;nan;100232.59;4901504;29;20200;-74
2023/09/03 05:12:22;;;;;;;1.90;1.53;;;;;;;16.95;nan;100226.31;4898258;29;20862;-74
2023/09/03 05:14:48;;;;;;;2.60;2.40;;;;;;;16.98;nan;100222.56;4903215;29;21029;-74
2023/09/03 05:17:14;;;;;;;3.00;1.90;;;;;;;17.02;nan;100230.16;4904167;29;20592;-74
2023/09/03 05:19:40;;;;;;;3.33;1.67;;;;;;;17.12;nan;100230.28;4904916;29;20199;-74
2023/09/03 05:22:06;;;;;;;2.30;2.10;;;;;;;17.21;nan;100234.81;4902830;29;20575;-75
2023/09/03 05:24:32;;;;;;;2.53;2.33;;;;;;;17.34;nan;100231.19;4903727;29;20213;-74
2023/09/03 05:26:58;;;;;;;3.53;1.90;;;;;;;17.45;nan;100228.47;4902411;29;20664;-74
2023/09/03 05:29:24;;;;;;;2.73;2.10;;;;;;;17.59;nan;100230.81;4916064;28;20209;-74
2023/09/03 05:31:57;;;;;;;2.43;2.20;;;;;;;17.70;nan;100233.44;4910514;29;20472;-74
2023/09/03 05:34:23;;;;;;;2.60;2.20;;;;;;;17.79;nan;100231.00;4911324;29;20209;-74
2023/09/03 05:36:49;;;;;;;2.53;2.13;;;;;;;17.86;nan;100241.00;4914046;29;20456;-75
2023/09/03 05:39:15;;;;;;;2.77;2.47;;;;;;;17.96;nan;100250.84;4930564;29;21094;-74
2023/09/03 05:41:41;;;;;;;2.60;2.40;;;;;;;18.06;nan;100243.78;4914184;29;20454;-74
2023/09/03 05:44:09;;;;;;;4.30;2.47;;;;;;;18.16;nan;100235.88;4912774;29;20201;-74
2023/09/03 05:46:35;;;;;;;3.97;3.63;;;;;;;18.24;nan;100250.19;4911089;29;20205;-74
2023/09/03 05:49:01;;;;;;;3.83;2.50;;;;;;;18.33;nan;100241.44;4927204;29;20456;-74
2023/09/03 05:51:27;;;;;;;4.57;2.87;;;;;;;18.42;nan;100252.25;4911634;29;20471;-74
2023/09/03 05:53:53;;;;;;;3.30;2.80;;;;;;;18.48;nan;100251.72;4908993;29;20457;-74
2023/09/03 05:56:20;;;;;;;2.40;2.20;;;;;;;18.60;nan;100255.13;4912659;29;20340;-74
2023/09/03 05:58:46;;;;;;;4.00;2.80;;;;;;;18.77;nan;100258.03;4908890;29;20477;-74
2023/09/03 06:01:12;;;;;;;3.90;2.60;;;;;;;18.97;nan;100269.59;4910231;29;20473;-74
2023/09/03 06:03:39;;;;;;;3.67;3.03;;;;;;;19.16;nan;100274.13;4909092;29;20203;-74
2023/09/03 06:06:10;;;;;;;4.95;3.00;;;;;;;19.37;nan;100267.88;4923298;29;20464;-74
2023/09/03 06:08:37;;;;;;;4.63;3.70;;;;;;;19.59;nan;100280.91;4911078;29;20202;-74
2023/09/03 06:11:03;;;;;;;5.73;3.20;;;;;;;19.85;nan;100288.41;4925435;29;20512;-74
2023/09/03 06:13:30;;;;;;;3.13;2.47;;;;;;;20.17;nan;100300.56;4926654;29;21133;-75
2023/09/03 06:15:56;;;;;;;4.37;3.10;;;;;;;20.53;nan;100304.31;4930419;29;20446;-75
2023/09/03 06:18:22;;;;;;;3.90;2.70;;;;;;;20.90;nan;100307.03;4930966;29;20476;-75
2023/09/03 06:20:48;;;;;;;3.47;3.17;;;;;;;21.22;nan;100308.41;4927471;29;20550;-75
2023/09/03 06:23:17;;;;;;;2.80;2.43;;;;;;;21.50;nan;100306.59;4931975;29;21036;-75
2023/09/03 06:25:43;;;;;;;3.77;2.90;;;;;;;21.73;nan;100301.63;4931347;29;20981;-75
2023/09/03 06:28:10;;;;;;;3.80;2.90;;;;;;;22.00;nan;100295.34;4912603;29;20545;-75
2023/09/03 06:30:36;;;;;;;4.23;2.40;;;;;;;22.18;nan;100306.06;4913482;29;20542;-75
2023/09/03 06:33:01;;;;;;;4.30;2.43;;;;;;;22.17;nan;100315.06;4927364;29;20481;-75
2023/09/03 06:35:27;;;;;;;3.20;2.70;;;;;;;22.05;nan;100314.44;4921435;29;20192;-75
2023/09/03 06:37:52;;;;;;;3.53;3.10;;;;;;;21.87;nan;100311.78;4925572;29;20416;-75
2023/09/03 06:40:18;;;;;;;9.43;3.33;;;;;;;21.65;nan;100320.25;4921012;28;20555;-75
2023/09/03 06:42:43;;;;;;;5.30;4.40;;;;;;;21.45;nan;100319.56;4908587;29;20214;-75
2023/09/03 06:45:09;;;;;;;4.60;4.10;;;;;;;21.18;nan;100328.41;4922711;29;20735;-74
2023/09/03 06:47:34;;;;;;;5.10;4.70;;;;;;;21.00;nan;100331.84;4922833;29;20296;-75
2023/09/03 06:50:00;;;;;;;5.33;4.43;;;;;;;20.85;nan;100333.31;4926635;29;20614;-74
2023/09/03 06:52:25;;;;;;;7.43;4.33;;;;;;;20.78;nan;100334.88;4925603;28;20210;-75
2023/09/03 06:54:51;;;;;;;4.90;4.43;;;;;;;20.74;nan;100342.34;4921049;29;20195;-75
2023/09/03 06:57:17;;;;;;;5.60;4.20;;;;;;;20.66;nan;100338.72;4926712;29;20211;-75
2023/09/03 06:59:43;;;;;;;5.73;4.43;;;;;;;20.62;nan;100348.84;4920671;29;20225;-75
2023/09/03 07:02:08;;;;;;;4.80;3.97;;;;;;;20.62;nan;100353.34;4923080;29;20451;-75
2023/09/03 07:04:37;;;;;;;5.67;4.70;;;;;;;20.59;nan;100361.63;4918519;29;20307;-75
2023/09/03 07:07:03;;;;;;;6.43;4.00;;;;;;;20.55;nan;100348.59;4921760;29;20250;-75
2023/09/03 07:09:31;;;;;;;5.10;4.10;;;;;;;20.62;nan;100334.66;4921083;29;20898;-75
2023/09/03 07:14:38;;;;;;;6.60;5.50;;;;;;;20.90;nan;100330.19;4934730;23;20574;-75
2023/09/03 07:17:04;;;;;;;6.63;4.53;;;;;;;21.02;nan;100328.19;4936942;28;20555;-75
2023/09/03 07:19:30;;;;;;;5.00;4.60;;;;;;;21.11;nan;100322.78;4936847;28;20266;-76
2023/09/03 07:21:55;;;;;;;5.30;4.77;;;;;;;21.24;nan;100325.13;4936365;28;20207;-76
2023/09/03 07:24:21;;;;;;;6.20;5.37;;;;;;;21.38;nan;100321.97;4935755;28;20977;-75
2023/09/03 07:26:47;;;;;;;5.57;4.93;;;;;;;21.58;nan;100325.38;4937206;28;20762;-75
2023/09/03 07:29:16;;;;;;;9.27;4.40;;;;;;;22.00;nan;100324.75;4936915;28;20223;-76
2023/09/03 07:31:43;;;;;;;6.73;4.90;;;;;;;22.47;nan;100327.19;4934434;28;20221;-76
2023/09/03 07:34:12;;;;;;;4.30;3.90;;;;;;;23.00;nan;100327.16;4937626;28;20576;-75
2023/09/03 07:36:38;;;;;;;9.30;4.60;;;;;;;23.60;nan;100314.47;4936930;28;20472;-73
2023/09/03 07:39:05;;;;;;;4.87;4.40;;;;;;;24.18;nan;100317.22;4935015;28;20460;-74
2023/09/03 07:41:33;;;;;;;4.83;4.17;;;;;;;24.70;nan;100311.44;4934829;28;20232;-75
2023/09/03 07:43:59;;;;;;;4.30;3.90;;;;;;;25.20;nan;100310.28;4935970;28;20423;-74
2023/09/03 07:46:28;;;;;;;5.80;4.40;;;;;;;25.54;nan;100307.22;4934709;28;20461;-74
2023/09/03 07:48:53;;;;;;;5.83;4.53;;;;;;;25.76;nan;100316.34;4937220;28;20431;-74
2023/09/03 07:51:19;;;;;;;5.67;3.30;;;;;;;26.05;nan;100317.50;4935763;28;20502;-74
2023/09/03 07:53:49;;;;;;;6.10;4.17;;;;;;;26.29;nan;100324.53;4938545;28;20573;-74
2023/09/03 07:56:18;;;;;;;4.13;3.73;;;;;;;26.55;nan;100321.44;4937616;28;20459;-74
2023/09/03 07:58:44;;;;;;;6.93;5.00;;;;;;;26.67;nan;100325.34;4939440;28;20436;-74
2023/09/03 08:01:13;;;;;;;4.23;3.83;;;;;;;26.85;nan;100334.94;4942615;28;20425;-74
2023/09/03 08:03:39;;;;;;;5.93;3.50;;;;;;;26.98;nan;100327.03;4940707;28;20952;-74
2023/09/03 08:06:08;;;;;;;4.90;4.40;;;;;;;27.12;nan;100331.56;4939432;28;20470;-74
2023/09/03 08:08:34;;;;;;;5.30;4.03;;;;;;;27.19;nan;100328.16;4938180;28;20466;-74
2023/09/03 08:11:00;;;;;;;3.77;3.47;;;;;;;27.32;nan;100328.31;4939177;28;20451;-74
2023/09/03 08:13:25;;;;;;;4.67;3.97;;;;;;;27.41;nan;100332.59;4938427;28;20470;-74
2023/09/03 08:15:51;;;;;;;6.40;4.30;;;;;;;27.52;nan;100325.88;4940702;28;20219;-74
2023/09/03 08:18:17;;;;;;;4.60;4.00;;;;;;;27.67;nan;100328.50;4940382;28;20330;-74
2023/09/03 08:20:43;;;;;;;5.63;4.53;;;;;;;27.87;nan;100332.28;4940739;28;20283;-74
2023/09/03 08:23:12;;;;;;;6.30;3.50;;;;;;;28.04;nan;100329.31;4941031;29;20541;-74
2023/09/03 08:25:38;;;;;;;5.50;3.77;;;;;;;28.15;nan;100331.47;4940608;28;20227;-74
2023/09/03 08:28:04;;;;;;;3.43;3.13;;;;;;;28.20;nan;100339.84;4940648;28;20468;-74
2023/09/03 08:30:30;;;;;;;5.00;4.10;;;;;;;28.13;nan;100337.06;4941153;28;20471;-74
2023/09/03 08:32:55;;;;;;;5.30;4.10;;;;;;;28.17;nan;100338.38;4940392;28;21869;-74
2023/09/03 08:35:21;;;;;;;4.77;3.70;;;;;;;28.27;nan;100337.19;4940978;28;20292;-74
2023/09/03 08:37:46;;;;;;;4.87;4.27;;;;;;;28.27;nan;100340.72;4939384;28;20233;-75
2023/09/03 08:40:12;;;;;;;5.80;4.50;;;;;;;28.21;nan;100349.59;4942153;28;20211;-74
2023/09/03 08:42:41;;;;;;;4.90;4.50;;;;;;;28.18;nan;100360.81;4940473;28;20313;-74
2023/09/03 08:45:11;;;;;;;8.23;5.03;;;;;;;28.17;nan;100361.84;4940402;28;20871;-74
2023/09/03 08:47:40;;;;;;;4.13;3.70;;;;;;;28.09;nan;100362.81;4941059;28;20470;-74
2023/09/03 08:50:09;;;;;;;7.43;3.97;;;;;;;28.04;nan;100359.03;4941214;28;21283;-75
2023/09/03 08:52:37;;;;;;;5.27;4.77;;;;;;;28.04;nan;100364.41;4940321;28;20479;-75
2023/09/03 08:55:04;;;;;;;5.67;3.97;;;;;;;27.97;nan;100361.63;4940390;28;20463;-75
2023/09/03 08:57:30;;;;;;;4.03;3.60;;;;;;;27.89;nan;100365.31;4939636;28;20479;-75
2023/09/03 08:59:56;;;;;;;4.63;3.70;;;;;;;27.63;nan;100355.03;4939138;28;20469;-75
2023/09/03 09:02:24;;;;;;;4.80;3.60;;;;;;;27.45;nan;100360.84;4938983;28;20567;-75
2023/09/03 09:04:50;;;;;;;5.10;4.07;;;;;;;27.39;nan;100367.00;4938763;28;20459;-75
2023/09/03 09:07:18;;;;;;;3.43;2.87;;;;;;;27.39;nan;100377.81;4938626;28;20486;-74
2023/09/03 09:09:45;;;;;;;3.87;3.20;;;;;;;27.41;nan;100373.06;4935043;28;20201;-72
2023/09/03 09:12:19;;;;;;;4.67;3.73;;;;;;;27.50;nan;100377.31;4939214;28;20484;-75
2023/09/03 09:14:57;;;;;;;4.53;3.73;;;;;;;27.54;nan;100370.53;4939682;28;20472;-76
2023/09/03 09:17:22;;;;;;;4.53;3.97;;;;;;;27.41;nan;100366.81;4941426;28;21289;-75
2023/09/03 09:19:48;;;;;;;4.73;4.27;;;;;;;27.33;nan;100371.31;4938557;28;20464;-73
2023/09/03 09:22:14;;;;;;;4.23;3.83;;;;;;;27.25;nan;100370.56;4939158;28;20203;-73
2023/09/03 09:24:46;;;;;;;4.20;3.43;;;;;;;27.15;nan;100363.56;4939962;28;20239;-73
2023/09/03 09:27:16;;;;;;;4.60;3.57;;;;;;;27.15;nan;100363.56;4937766;28;20206;-74
2023/09/03 09:29:43;;;;;;;4.30;3.73;;;;;;;27.19;nan;100365.91;4938745;28;20456;-74
2023/09/03 09:32:20;;;;;;;5.33;3.43;;;;;;;27.26;nan;100372.22;4938663;28;20431;-74
2023/09/03 09:34:46;;;;;;;7.90;3.53;;;;;;;27.35;nan;100369.25;4937025;28;20451;-74
2023/09/03 09:37:13;;;;;;;3.40;3.17;;;;;;;27.42;nan;100369.31;4938843;28;21123;-75
2023/09/03 09:39:49;;;;;;;5.90;3.47;;;;;;;27.43;nan;100365.59;4937206;28;20503;-74
2023/09/03 09:42:21;;;;;;;4.37;3.03;;;;;;;27.49;nan;100364.00;4949392;29;20499;-74
2023/09/03 09:44:52;;;;;;;3.93;3.53;;;;;;;27.54;nan;100365.13;4936504;28;20559;-75
2023/09/03 09:47:18;;;;;;;4.80;3.67;;;;;;;27.59;nan;100354.56;4937232;28;20539;-74
2023/09/03 09:49:45;;;;;;;4.10;2.73;;;;;;;27.65;nan;100360.22;4934571;28;20520;-75
2023/09/03 09:52:12;;;;;;;2.80;2.60;;;;;;;27.67;nan;100355.50;4936820;28;20555;-75
2023/09/03 09:54:42;;;;;;;3.87;3.53;;;;;;;27.59;nan;100359.97;4935001;28;20441;-74
2023/09/03 09:57:14;;;;;;;3.80;3.40;;;;;;;27.45;nan;100368.13;4936184;28;20469;-74
2023/09/03 09:59:44;;;;;;;6.10;4.17;;;;;;;27.39;nan;100358.09;4935457;28;20472;-74
2023/09/03 10:02:14;;;;;;;8.17;3.30;;;;;;;27.33;nan;100354.28;4937326;28;20475;-74
2023/09/03 10:06:14;;;;;;;7.00;2.97;;;;;;;27.41;50.51;100356.88;5036780;28;20562;-75
2023/09/03 10:08:40;;;;;;;4.10;3.80;;;;;;;27.47;50.54;100358.81;5040852;28;20789;-75
2023/09/03 10:11:06;;;;;;;4.47;4.03;;;;;;;27.53;50.33;100341.84;5039377;28;20470;-75
2023/09/03 10:13:31;;;;;;;4.37;3.10;;;;;;;27.61;50.27;100342.75;5039357;28;20468;-75
2023/09/03 10:16:02;;;;;;;4.40;4.00;;;;;;;27.68;49.99;100351.75;5040410;28;20205;-74
2023/09/03 10:18:27;;;;;;;3.23;2.97;;;;;;;27.82;49.84;100342.81;5040241;28;21113;-75
2023/09/03 10:21:06;;;;;;;3.23;2.90;;;;;;;27.87;49.90;100350.31;5041116;28;20456;-75
2023/09/03 10:23:39;;;;;;;4.17;3.70;;;;;;;27.75;49.73;100347.28;5041508;28;20281;-75
2023/09/03 10:26:07;;;;;;;3.60;3.30;;;;;;;27.70;50.03;100349.69;5038244;28;20590;-75
2023/09/03 10:28:40;;;;;;;5.93;2.80;;;;;;;27.65;49.86;100344.03;5038067;28;20491;-75
2023/09/03 10:31:08;;;;;;;3.90;3.60;;;;;;;27.65;49.57;100341.34;5039882;28;20922;-75
2023/09/03 10:33:35;;;;;;;4.30;2.83;;;;;;;27.65;49.57;100338.63;5037487;28;20521;-77
2023/09/03 10:36:16;;;;;;;3.47;2.77;;;;;;;27.70;49.63;100344.31;5036274;28;20959;-79
2023/09/03 10:38:43;;;;;;;3.00;2.80;;;;;;;27.66;49.49;100340.34;5037626;28;20486;-77
2023/09/03 10:41:22;;;;;;;4.00;3.50;;;;;;;27.63;49.71;100333.44;5036245;28;20452;-80
2023/09/03 10:44:10;;;;;;;3.03;2.83;;;;;;;27.73;49.83;100333.13;5037424;28;20459;-79
2023/09/03 10:46:35;;;;;;;3.57;3.37;;;;;;;27.83;49.48;100333.69;5037061;28;20460;-79
2023/09/03 10:49:01;;;;;;;3.50;3.20;;;;;;;27.91;49.44;100335.41;5033745;28;20494;-80
2023/09/03 10:51:37;;;;;;;3.40;2.87;;;;;;;28.02;48.99;100335.72;5036514;28;20287;-79
2023/09/03 10:54:20;;;;;;;3.53;2.63;;;;;;;28.08;48.82;100331.41;5036908;28;20204;-79
2023/09/03 10:57:03;;;;;;;3.03;2.77;;;;;;;28.09;48.89;100338.50;5037230;28;20455;-79
2023/09/03 10:59:57;;;;;;;2.47;2.27;;;;;;;28.14;48.88;100338.75;5037674;28;21151;-78
2023/09/03 11:02:27;;;;;;;3.70;2.70;;;;;;;28.17;48.54;100340.25;5035539;28;20470;-79
2023/09/03 11:05:08;;;;;;;3.30;2.57;;;;;;;28.14;48.00;100337.91;5033984;28;20514;-77
2023/09/03 11:07:33;;;;;;;2.60;2.40;;;;;;;28.17;47.89;100334.84;5038790;28;20509;-76
2023/09/03 11:10:23;;;;;;;3.33;2.73;;;;;;;28.21;48.04;100328.81;5036302;28;20451;-80
2023/09/03 11:12:48;;;;;;;3.10;2.50;;;;;;;28.18;48.63;100328.41;5039760;28;20233;-78
2023/09/03 11:15:14;;;;;;;10.30;2.97;;;;;;;28.15;49.02;100337.72;5036681;28;20846;-80
2023/09/03 11:17:54;;;;;;;3.43;2.90;;;;;;;28.09;49.34;100343.06;5021888;28;20201;-81
2023/09/03 11:20:30;;;;;;;2.97;2.30;;;;;;;28.06;49.73;100338.03;5023451;28;20546;-78
2023/09/03 11:22:57;;;;;;;2.80;2.60;;;;;;;28.10;49.69;100333.94;5021292;28;21055;-77
2023/09/03 11:25:36;;;;;;;3.13;2.83;;;;;;;28.02;50.02;100338.44;5022575;28;20526;-80
2023/09/03 11:28:07;;;;;;;3.93;3.57;;;;;;;28.07;50.38;100331.63;5020602;28;20517;-80
2023/09/03 11:30:34;;;;;;;5.37;3.00;;;;;;;28.11;50.39;100332.88;5024785;28;20468;-78
2023/09/03 11:33:00;;;;;;;2.77;2.57;;;;;;;28.23;50.29;100334.06;5024499;28;20528;-80
2023/09/03 11:35:26;;;;;;;3.53;3.23;;;;;;;28.23;50.24;100328.66;5018776;28;21001;-79
2023/09/03 11:37:53;;;;;;;3.30;2.93;;;;;;;28.19;50.42;100324.66;5022184;28;20488;-77
2023/09/03 11:40:23;;;;;;;4.07;3.67;;;;;;;28.23;50.55;100324.06;5025676;28;20464;-79
2023/09/03 11:42:50;;;;;;;3.87;2.77;;;;;;;28.29;50.59;100321.63;5022961;28;20498;-79
2023/09/03 11:45:16;;;;;;;3.23;2.93;;;;;;;28.34;50.85;100324.56;5023631;28;21059;-79
2023/09/03 11:47:48;;;;;;;2.73;2.50;;;;;;;28.37;51.02;100326.88;5024233;28;21010;-77